createdAt,value
2022-10-14T00:00:54.426Z,16.64
2022-10-14T00:01:54.509Z,16.64
2022-10-14T00:02:54.432Z,16.64
2022-10-14T00:03:54.444Z,16.64
2022-10-14T00:04:54.430Z,16.64
2022-10-14T00:05:54.430Z,16.64
2022-10-14T00:06:54.432Z,16.64
2022-10-14T00:07:54.430Z,16.64
2022-10-14T00:08:54.441Z,16.64
2022-10-14T00:09:54.435Z,16.64
2022-10-14T00:10:54.447Z,16.64
2022-10-14T00:11:54.427Z,16.64
2022-10-14T00:12:54.428Z,16.64
2022-10-14T00:13:54.450Z,16.64
2022-10-14T00:14:54.430Z,16.64
2022-10-14T00:15:54.426Z,16.64
2022-10-14T00:16:54.427Z,16.64
2022-10-14T00:17:54.430Z,16.64
2022-10-14T00:18:54.449Z,16.64
2022-10-14T00:19:54.436Z,16.64
2022-10-14T00:20:54.428Z,16.64
2022-10-14T00:21:54.423Z,16.64
2022-10-14T00:22:54.438Z,16.64
2022-10-14T00:23:54.438Z,16.64
2022-10-14T00:24:54.428Z,16.64
2022-10-14T00:25:54.446Z,16.64
2022-10-14T00:26:54.430Z,16.64
2022-10-14T00:27:54.433Z,16.64
2022-10-14T00:28:54.492Z,16.64
2022-10-14T00:29:54.431Z,16.64
2022-10-14T00:30:54.479Z,16.64
2022-10-14T00:31:54.423Z,16.64
2022-10-14T00:32:54.420Z,16.64
2022-10-14T00:33:54.441Z,16.64
2022-10-14T00:34:54.425Z,16.64
2022-10-14T00:35:54.424Z,16.64
2022-10-14T00:36:54.423Z,16.64
2022-10-14T00:37:54.421Z,16.64
2022-10-14T00:38:54.516Z,16.64
2022-10-14T00:39:57.047Z,16.64
2022-10-14T00:40:54.438Z,16.64
2022-10-14T00:41:54.421Z,16.64
2022-10-14T00:42:54.426Z,16.64
2022-10-14T00:43:54.442Z,16.64
2022-10-14T00:44:54.420Z,16.64
2022-10-14T00:45:54.423Z,16.64
2022-10-14T00:46:54.428Z,16.64
2022-10-14T00:47:54.428Z,16.64
2022-10-14T00:48:54.437Z,16.64
2022-10-14T00:49:54.427Z,16.64
2022-10-14T00:50:54.441Z,16.64
2022-10-14T00:51:54.432Z,16.64
2022-10-14T00:52:54.429Z,16.64
2022-10-14T00:53:54.438Z,16.64
2022-10-14T00:54:54.465Z,16.64
2022-10-14T00:55:54.452Z,16.64
2022-10-14T00:56:54.427Z,16.64
2022-10-14T00:57:54.422Z,16.64
2022-10-14T00:58:54.445Z,16.64
2022-10-14T00:59:54.431Z,16.64
2022-10-14T01:00:54.502Z,16.64
2022-10-14T01:01:54.428Z,16.64
2022-10-14T01:02:54.441Z,16.64
2022-10-14T01:03:54.440Z,16.64
2022-10-14T01:04:54.425Z,16.64
2022-10-14T01:05:54.428Z,16.64
2022-10-14T01:06:54.429Z,16.64
2022-10-14T01:07:54.427Z,16.64
2022-10-14T01:08:54.446Z,16.64
2022-10-14T01:09:54.426Z,16.64
2022-10-14T01:10:54.544Z,16.64
2022-10-14T01:12:16.227Z,16.64
2022-10-14T01:12:54.426Z,16.64
2022-10-14T01:13:54.451Z,16.64
2022-10-14T01:14:54.435Z,16.64
2022-10-14T01:15:54.427Z,16.64
2022-10-14T01:16:54.428Z,16.64
2022-10-14T01:17:54.435Z,16.64
2022-10-14T01:18:54.460Z,16.64
2022-10-14T01:19:54.451Z,16.64
2022-10-14T01:20:54.424Z,16.64
2022-10-14T01:21:54.428Z,16.64
2022-10-14T01:22:54.434Z,16.64
2022-10-14T01:23:54.455Z,16.64
2022-10-14T01:24:54.424Z,16.64
2022-10-14T01:25:54.450Z,16.64
2022-10-14T01:26:54.431Z,16.64
2022-10-14T01:27:54.431Z,16.64
2022-10-14T01:28:54.510Z,16.64
2022-10-14T01:29:54.450Z,16.64
2022-10-14T01:30:54.420Z,16.64
2022-10-14T01:31:54.423Z,16.64
2022-10-14T01:32:54.465Z,16.64
2022-10-14T01:33:54.457Z,16.64
2022-10-14T01:34:54.430Z,16.64
2022-10-14T01:35:54.437Z,16.64
2022-10-14T01:36:54.426Z,16.64
2022-10-14T01:37:54.426Z,16.64
2022-10-14T01:38:54.444Z,16.64
2022-10-14T01:39:54.430Z,16.64
2022-10-14T01:40:54.446Z,16.64
2022-10-14T01:41:54.422Z,16.64
2022-10-14T01:42:54.422Z,16.64
2022-10-14T01:43:54.442Z,16.64
2022-10-14T01:44:54.434Z,16.64
2022-10-14T01:45:54.420Z,16.64
2022-10-14T01:46:54.420Z,16.64
2022-10-14T01:47:54.426Z,15.16
2022-10-14T01:48:54.440Z,15.16
2022-10-14T01:49:54.425Z,15.15
2022-10-14T01:50:54.425Z,15.18
2022-10-14T01:51:54.417Z,14.96
2022-10-14T01:52:54.420Z,14.94
2022-10-14T01:53:54.440Z,14.94
2022-10-14T01:54:54.422Z,14.94
2022-10-14T01:55:54.434Z,14.49
2022-10-14T01:56:54.421Z,14.49
2022-10-14T01:57:54.427Z,14.49
2022-10-14T01:58:54.440Z,15.08
2022-10-14T01:59:54.423Z,15.01
2022-10-14T02:00:54.425Z,15.01
2022-10-14T02:01:54.499Z,14.89
2022-10-14T02:02:54.421Z,15.04
2022-10-14T02:03:54.443Z,15.05
2022-10-14T02:04:54.424Z,15.02
2022-10-14T02:05:54.436Z,15.02
2022-10-14T02:06:54.435Z,15.02
2022-10-14T02:07:54.424Z,15
2022-10-14T02:08:54.441Z,14.87
2022-10-14T02:09:54.427Z,14.92
2022-10-14T02:10:58.208Z,14.96
2022-10-14T02:11:54.432Z,14.94
2022-10-14T02:12:54.425Z,14.94
2022-10-14T02:13:54.446Z,14.86
2022-10-14T02:14:54.445Z,14.82
2022-10-14T02:15:54.422Z,14.83
2022-10-14T02:16:54.437Z,14.84
2022-10-14T02:17:54.434Z,14.98
2022-10-14T02:18:54.678Z,14.98
2022-10-14T02:19:54.425Z,15
2022-10-14T02:20:54.422Z,14.87
2022-10-14T02:21:54.435Z,14.67
2022-10-14T02:22:54.432Z,14.76
2022-10-14T02:23:54.441Z,14.76
2022-10-14T02:24:54.432Z,15.13
2022-10-14T02:25:54.437Z,15.08
2022-10-14T02:26:54.431Z,15.1
2022-10-14T02:27:54.427Z,15.02
2022-10-14T02:28:54.500Z,15.02
2022-10-14T02:29:54.430Z,14.88
2022-10-14T02:30:54.423Z,14.97
2022-10-14T02:31:54.425Z,15.08
2022-10-14T02:32:54.437Z,15.1
2022-10-14T02:33:54.443Z,14.99
2022-10-14T02:34:54.430Z,14.93
2022-10-14T02:35:54.425Z,15.06
2022-10-14T02:36:54.429Z,14.95
2022-10-14T02:37:54.433Z,14.96
2022-10-14T02:38:54.446Z,14.99
2022-10-14T02:39:54.423Z,15
2022-10-14T02:40:54.450Z,14.98
2022-10-14T02:41:54.437Z,14.94
2022-10-14T02:42:54.427Z,14.98
2022-10-14T02:43:54.526Z,14.98
2022-10-14T02:44:54.422Z,14.98
2022-10-14T02:45:54.440Z,14.98
2022-10-14T02:46:54.432Z,14.98
2022-10-14T02:47:54.422Z,14.98
2022-10-14T02:48:54.440Z,14.98
2022-10-14T02:49:54.432Z,14.98
2022-10-14T02:50:54.430Z,14.98
2022-10-14T02:51:54.429Z,15.03
2022-10-14T02:52:54.423Z,15.03
2022-10-14T02:53:54.435Z,14.95
2022-10-14T02:54:54.431Z,14.94
2022-10-14T02:55:54.441Z,14.93
2022-10-14T02:56:54.424Z,14.93
2022-10-14T02:57:54.419Z,14.85
2022-10-14T02:58:54.444Z,14.82
2022-10-14T02:59:54.430Z,14.86
2022-10-14T03:00:54.419Z,14.8
2022-10-14T03:01:54.450Z,15.06
2022-10-14T03:02:54.425Z,15.06
2022-10-14T03:03:54.432Z,14.88
2022-10-14T03:04:54.425Z,14.96
2022-10-14T03:05:54.424Z,14.91
2022-10-14T03:06:54.421Z,14.94
2022-10-14T03:07:54.420Z,15.04
2022-10-14T03:08:54.440Z,15.07
2022-10-14T03:09:54.430Z,15.02
2022-10-14T03:10:54.439Z,15.02
2022-10-14T03:11:54.422Z,15.02
2022-10-14T03:12:54.425Z,15.09
2022-10-14T03:13:54.439Z,15.03
2022-10-14T03:14:54.421Z,14.96
2022-10-14T03:15:54.423Z,14.97
2022-10-14T03:16:54.424Z,14.96
2022-10-14T03:17:54.424Z,14.85
2022-10-14T03:18:54.451Z,14.49
2022-10-14T03:19:54.435Z,15.01
2022-10-14T03:20:54.470Z,15.02
2022-10-14T03:21:54.424Z,15.09
2022-10-14T03:22:54.423Z,15.13
2022-10-14T03:23:54.443Z,15
2022-10-14T03:24:54.432Z,14.98
2022-10-14T03:25:54.444Z,14.97
2022-10-14T03:26:54.423Z,14.99
2022-10-14T03:27:54.432Z,14.96
2022-10-14T03:28:54.520Z,14.88
2022-10-14T03:29:54.429Z,14.91
2022-10-14T03:30:54.425Z,14.89
2022-10-14T03:31:54.425Z,14.79
2022-10-14T03:32:54.436Z,14.81
2022-10-14T03:33:54.439Z,14.88
2022-10-14T03:34:54.433Z,14.76
2022-10-14T03:35:54.429Z,14.68
2022-10-14T03:36:54.424Z,14.72
2022-10-14T03:37:54.427Z,14.83
2022-10-14T03:38:54.437Z,14.9
2022-10-14T03:39:54.426Z,14.9
2022-10-14T03:40:54.449Z,14.9
2022-10-14T03:41:54.420Z,14.9
2022-10-14T03:42:54.426Z,14.9
2022-10-14T03:43:54.448Z,14.9
2022-10-14T03:44:54.426Z,14.9
2022-10-14T03:45:54.427Z,14.9
2022-10-14T03:46:54.425Z,14.9
2022-10-14T03:47:54.428Z,14.9
2022-10-14T03:48:54.436Z,14.9
2022-10-14T03:49:54.425Z,14.9
2022-10-14T03:50:54.425Z,14.9
2022-10-14T03:51:54.426Z,14.9
2022-10-14T03:52:55.793Z,14.9
2022-10-14T03:53:54.448Z,14.9
2022-10-14T03:54:54.444Z,14.9
2022-10-14T03:55:54.444Z,14.9
2022-10-14T03:56:54.425Z,14.9
2022-10-14T03:57:54.422Z,14.9
2022-10-14T03:58:54.445Z,14.9
2022-10-14T03:59:54.429Z,14.9
2022-10-14T04:00:54.427Z,14.9
2022-10-14T04:01:54.556Z,14.9
2022-10-14T04:02:54.428Z,15.1
2022-10-14T04:03:54.445Z,15.14
2022-10-14T04:04:59.825Z,15.14
2022-10-14T04:05:54.429Z,15.21
2022-10-14T04:06:54.425Z,15.16
2022-10-14T04:07:54.430Z,15.16
2022-10-14T04:08:54.428Z,15.29
2022-10-14T04:09:54.433Z,15.29
2022-10-14T04:10:54.447Z,15.16
2022-10-14T04:11:54.419Z,15.16
2022-10-14T04:12:54.424Z,15.16
2022-10-14T04:13:54.442Z,15.24
2022-10-14T04:14:54.424Z,15.14
2022-10-14T04:15:54.420Z,15.08
2022-10-14T04:16:54.425Z,14.98
2022-10-14T04:17:54.424Z,15.06
2022-10-14T04:18:54.458Z,14.87
2022-10-14T04:19:54.421Z,15.06
2022-10-14T04:20:54.421Z,15.07
2022-10-14T04:21:54.427Z,15
2022-10-14T04:22:54.426Z,15.13
2022-10-14T04:23:54.435Z,14.99
2022-10-14T04:24:54.424Z,14.84
2022-10-14T04:25:54.445Z,15.01
2022-10-14T04:26:54.420Z,15.01
2022-10-14T04:27:54.424Z,15.24
2022-10-14T04:28:54.640Z,15.28
2022-10-14T04:29:54.420Z,15.28
2022-10-14T04:30:54.420Z,15.36
2022-10-14T04:31:54.426Z,15.19
2022-10-14T04:32:54.418Z,15.1
2022-10-14T04:33:54.435Z,15.18
2022-10-14T04:34:54.426Z,15.11
2022-10-14T04:35:54.431Z,15.05
2022-10-14T04:36:54.423Z,15.01
2022-10-14T04:37:54.423Z,14.96
2022-10-14T04:38:54.448Z,15.06
2022-10-14T04:39:54.428Z,15.06
2022-10-14T04:40:54.444Z,15.06
2022-10-14T04:41:54.435Z,15.18
2022-10-14T04:42:54.427Z,15.08
2022-10-14T04:43:54.444Z,14.94
2022-10-14T04:44:54.424Z,15.05
2022-10-14T04:45:54.437Z,15.05
2022-10-14T04:46:54.431Z,15.05
2022-10-14T04:47:54.426Z,14.96
2022-10-14T04:48:54.441Z,14.96
2022-10-14T04:49:54.431Z,14.96
2022-10-14T04:50:54.426Z,14.96
2022-10-14T04:51:54.425Z,15.03
2022-10-14T04:52:54.425Z,15.02
2022-10-14T04:53:54.443Z,15.02
2022-10-14T04:54:54.424Z,15.06
2022-10-14T04:55:54.440Z,15.07
2022-10-14T04:56:54.429Z,15.07
2022-10-14T04:57:54.427Z,14.96
2022-10-14T04:58:54.432Z,14.87
2022-10-14T04:59:54.480Z,14.82
2022-10-14T05:00:54.426Z,14.86
2022-10-14T05:01:54.456Z,14.93
2022-10-14T05:02:54.425Z,14.52
2022-10-14T05:03:54.453Z,14.96
2022-10-14T05:04:54.432Z,14.87
2022-10-14T05:05:54.428Z,14.79
2022-10-14T05:06:54.422Z,14.9
2022-10-14T05:07:54.427Z,15.01
2022-10-14T05:08:54.444Z,15.1
2022-10-14T05:09:56.557Z,15.1
2022-10-14T05:10:54.432Z,15.07
2022-10-14T05:11:54.426Z,15.03
2022-10-14T05:12:54.422Z,15.14
2022-10-14T05:13:54.436Z,15.18
2022-10-14T05:14:54.425Z,15.07
2022-10-14T05:15:54.435Z,15.08
2022-10-14T05:16:54.428Z,15.06
2022-10-14T05:17:54.424Z,14.98
2022-10-14T05:18:54.556Z,15.34
2022-10-14T05:19:54.428Z,15.25
2022-10-14T05:20:54.427Z,15.29
2022-10-14T05:21:54.436Z,15.33
2022-10-14T05:22:54.429Z,15.19
2022-10-14T05:23:54.445Z,14.95
2022-10-14T05:24:54.428Z,15.03
2022-10-14T05:25:54.439Z,15.03
2022-10-14T05:26:54.434Z,14.91
2022-10-14T05:27:54.426Z,14.9
2022-10-14T05:28:54.493Z,15.24
2022-10-14T05:29:54.421Z,15.23
2022-10-14T05:30:54.426Z,15.29
2022-10-14T05:31:54.419Z,15.29
2022-10-14T05:32:54.419Z,15.29
2022-10-14T05:33:54.443Z,15.29
2022-10-14T05:34:54.424Z,15.06
2022-10-14T05:35:59.127Z,15.12
2022-10-14T05:36:54.432Z,15.19
2022-10-14T05:37:54.427Z,15.19
2022-10-14T05:38:54.441Z,15.09
2022-10-14T05:39:54.424Z,15.09
2022-10-14T05:40:54.438Z,15.29
2022-10-14T05:41:54.421Z,15.06
2022-10-14T05:42:54.419Z,14.99
2022-10-14T05:43:54.442Z,15.08
2022-10-14T05:44:54.430Z,15.27
2022-10-14T05:45:54.419Z,15.17
2022-10-14T05:46:54.421Z,15.13
2022-10-14T05:47:54.432Z,15.13
2022-10-14T05:48:54.444Z,15.21
2022-10-14T05:49:54.422Z,15.21
2022-10-14T05:50:54.437Z,15.23
2022-10-14T05:51:54.424Z,15.24
2022-10-14T05:52:54.426Z,15.24
2022-10-14T05:53:54.442Z,15.32
2022-10-14T05:54:54.428Z,15.32
2022-10-14T05:55:54.449Z,15.34
2022-10-14T05:56:54.429Z,15.32
2022-10-14T05:57:54.426Z,15.32
2022-10-14T05:58:54.430Z,15.3
2022-10-14T05:59:54.427Z,15.23
2022-10-14T06:00:54.430Z,15.2
2022-10-14T06:01:54.424Z,15.2
2022-10-14T06:02:54.508Z,15.22
2022-10-14T06:03:54.444Z,15.13
2022-10-14T06:04:54.433Z,15.1
2022-10-14T06:05:54.425Z,15.21
2022-10-14T06:06:54.431Z,15.21
2022-10-14T06:07:54.425Z,14.66
2022-10-14T06:08:54.431Z,14.74
2022-10-14T06:09:54.429Z,14.47
2022-10-14T06:10:54.436Z,14.47
2022-10-14T06:11:54.428Z,14.76
2022-10-14T06:12:54.427Z,14.86
2022-10-14T06:13:54.436Z,14.9
2022-10-14T06:14:54.422Z,14.83
2022-10-14T06:15:54.429Z,14.75
2022-10-14T06:16:54.430Z,14.97
2022-10-14T06:17:54.428Z,15.14
2022-10-14T06:18:54.771Z,15.42
2022-10-14T06:19:54.430Z,15.42
2022-10-14T06:20:54.430Z,14.6
2022-10-14T06:21:54.429Z,15.25
2022-10-14T06:22:54.442Z,15.31
2022-10-14T06:23:54.441Z,15.24
2022-10-14T06:24:54.427Z,15.16
2022-10-14T06:25:54.438Z,15.13
2022-10-14T06:26:54.433Z,15.28
2022-10-14T06:27:54.427Z,15
2022-10-14T06:28:54.503Z,14.98
2022-10-14T06:29:54.425Z,15.09
2022-10-14T06:30:54.431Z,15.1
2022-10-14T06:31:54.477Z,14.88
2022-10-14T06:32:54.422Z,15.01
2022-10-14T06:33:54.440Z,15.03
2022-10-14T06:35:41.833Z,14.94
2022-10-14T06:36:40.477Z,14.96
2022-10-14T06:37:40.451Z,15.26
2022-10-14T06:38:40.451Z,15.26
2022-10-14T06:39:40.434Z,15.29
2022-10-14T06:40:40.474Z,15.29
2022-10-14T06:41:40.465Z,15.4
2022-10-14T06:42:40.431Z,15.36
2022-10-14T06:43:40.428Z,15.36
2022-10-14T06:44:40.417Z,15.48
2022-10-14T06:45:40.421Z,15.17
2022-10-14T06:46:40.448Z,15.26
2022-10-14T06:47:40.422Z,15.31
2022-10-14T06:48:40.429Z,15.32
2022-10-14T06:49:40.426Z,15.34
2022-10-14T06:50:40.428Z,15.34
2022-10-14T06:51:40.428Z,15.31
2022-10-14T06:52:40.424Z,15.64
2022-10-14T06:53:40.446Z,15.58
2022-10-14T06:54:42.555Z,15.78
2022-10-14T06:55:40.414Z,15.78
2022-10-14T06:56:40.440Z,16.2
2022-10-14T06:57:40.424Z,16.2
2022-10-14T06:58:40.432Z,15.88
2022-10-14T06:59:40.421Z,15.86
2022-10-14T07:00:43.219Z,15.86
2022-10-14T07:01:40.498Z,15.84
2022-10-14T07:02:40.441Z,15.86
2022-10-14T07:03:40.449Z,15.67
2022-10-14T07:04:40.427Z,15.54
2022-10-14T07:05:40.421Z,15.54
2022-10-14T07:06:40.423Z,15.84
2022-10-14T07:07:40.417Z,15.84
2022-10-14T07:08:40.433Z,15.84
2022-10-14T07:09:40.421Z,15.84
2022-10-14T07:10:40.424Z,15.84
2022-10-14T07:11:40.439Z,15.84
2022-10-14T07:12:40.443Z,15.84
2022-10-14T07:13:40.427Z,15.84
2022-10-14T07:14:40.421Z,15.84
2022-10-14T07:15:40.417Z,15.84
2022-10-14T07:16:40.428Z,15.84
2022-10-14T07:17:40.418Z,15.84
2022-10-14T07:18:40.422Z,15.84
2022-10-14T07:19:40.414Z,15.84
2022-10-14T07:20:40.415Z,15.84
2022-10-14T07:21:40.419Z,15.84
2022-10-14T07:22:40.420Z,15.84
2022-10-14T07:23:40.420Z,15.84
2022-10-14T07:24:40.422Z,15.84
2022-10-14T07:25:40.423Z,15.84
2022-10-14T07:26:40.434Z,15.84
2022-10-14T07:27:40.444Z,15.84
2022-10-14T07:28:40.477Z,15.84
2022-10-14T07:29:40.440Z,15.84
2022-10-14T07:30:40.432Z,15.84
2022-10-14T07:31:40.413Z,15.84
2022-10-14T07:32:40.413Z,15.84
2022-10-14T07:33:40.437Z,15.84
2022-10-14T07:34:40.431Z,15.84
2022-10-14T07:35:40.414Z,15.84
2022-10-14T07:36:40.431Z,15.84
2022-10-14T07:37:40.422Z,15.84
2022-10-14T07:38:40.431Z,15.84
2022-10-14T07:39:40.415Z,15.84
2022-10-14T07:40:40.416Z,15.84
2022-10-14T07:41:40.438Z,15.84
2022-10-14T07:42:40.418Z,15.84
2022-10-14T07:43:40.420Z,15.84
2022-10-14T07:44:40.416Z,15.84
2022-10-14T07:45:40.446Z,15.84
2022-10-14T07:46:40.416Z,15.84
2022-10-14T07:47:40.418Z,15.84
2022-10-14T07:48:52.694Z,15.84
2022-10-14T07:49:40.424Z,15.84
2022-10-14T07:50:40.424Z,15.84
2022-10-14T07:51:40.421Z,15.84
2022-10-14T07:52:40.412Z,15.84
2022-10-14T07:53:40.421Z,15.84
2022-10-14T07:54:40.420Z,15.84
2022-10-14T07:55:40.413Z,15.84
2022-10-14T07:56:40.426Z,15.84
2022-10-14T07:57:40.418Z,15.84
2022-10-14T07:58:44.376Z,15.84
2022-10-14T07:59:40.412Z,15.84
2022-10-14T08:00:40.435Z,15.84
2022-10-14T08:01:40.511Z,15.84
2022-10-14T08:02:40.412Z,15.84
2022-10-14T08:03:40.439Z,15.84
2022-10-14T08:04:40.425Z,15.84
2022-10-14T08:05:40.416Z,15.84
2022-10-14T08:06:40.408Z,15.84
2022-10-14T08:07:40.431Z,15.84
2022-10-14T08:08:40.433Z,15.84
2022-10-14T08:09:40.423Z,15.84
2022-10-14T08:10:40.419Z,15.84
2022-10-14T08:11:40.430Z,15.84
2022-10-14T08:12:40.415Z,15.84
2022-10-14T08:13:43.413Z,15.84
2022-10-14T08:14:40.420Z,15.84
2022-10-14T08:15:40.426Z,15.84
2022-10-14T08:16:40.412Z,15.84
2022-10-14T08:17:40.419Z,15.84
2022-10-14T08:18:40.426Z,15.84
2022-10-14T08:19:40.421Z,15.84
2022-10-14T08:20:40.416Z,15.84
2022-10-14T08:21:40.419Z,15.84
2022-10-14T08:22:40.417Z,15.84
2022-10-14T08:23:40.419Z,15.84
2022-10-14T08:24:40.421Z,15.84
2022-10-14T08:25:40.412Z,15.84
2022-10-14T08:26:40.430Z,15.84
2022-10-14T08:27:40.403Z,15.84
2022-10-14T08:28:40.467Z,15.84
2022-10-14T08:29:40.410Z,15.84
2022-10-14T08:30:40.408Z,15.84
2022-10-14T08:31:40.408Z,15.84
2022-10-14T08:32:40.408Z,15.84
2022-10-14T08:33:40.417Z,15.84
2022-10-14T08:34:40.413Z,15.84
2022-10-14T08:35:40.419Z,15.84
2022-10-14T08:36:40.420Z,15.84
2022-10-14T08:37:40.415Z,15.84
2022-10-14T08:38:40.423Z,17.65
2022-10-14T08:39:40.409Z,17.65
2022-10-14T08:40:40.411Z,17.8
2022-10-14T08:41:40.425Z,17.92
2022-10-14T08:42:40.406Z,17.93
2022-10-14T08:43:40.415Z,17.84
2022-10-14T08:44:40.416Z,18.14
2022-10-14T08:45:40.412Z,18.07
2022-10-14T08:46:40.441Z,18.01
2022-10-14T08:47:40.404Z,18.18
2022-10-14T08:48:40.416Z,18.18
2022-10-14T08:49:40.409Z,18.18
2022-10-14T08:50:40.412Z,17.98
2022-10-14T08:51:40.423Z,17.98
2022-10-14T08:52:40.418Z,18.21
2022-10-14T08:53:40.425Z,18.21
2022-10-14T08:54:40.414Z,18.37
2022-10-14T08:55:40.414Z,18.37
2022-10-14T08:56:40.462Z,18.77
2022-10-14T08:57:40.416Z,18.8
2022-10-14T08:58:40.419Z,18.65
2022-10-14T08:59:40.409Z,18.77
2022-10-14T09:00:40.412Z,18.9
2022-10-14T09:01:40.441Z,18.66
2022-10-14T09:02:40.417Z,18.66
2022-10-14T09:03:40.501Z,18.66
2022-10-14T09:04:40.410Z,18.63
2022-10-14T09:05:40.409Z,18.76
2022-10-14T09:06:40.418Z,18.79
2022-10-14T09:07:40.458Z,18.79
2022-10-14T09:08:40.426Z,18.77
2022-10-14T09:09:40.415Z,18.67
2022-10-14T09:10:40.410Z,18.67
2022-10-14T09:11:40.428Z,18.72
2022-10-14T09:12:40.417Z,18.74
2022-10-14T09:13:40.419Z,18.74
2022-10-14T09:14:40.417Z,18.77
2022-10-14T09:15:40.407Z,18.78
2022-10-14T09:16:40.413Z,18.77
2022-10-14T09:17:40.429Z,18.52
2022-10-14T09:18:40.424Z,18.57
2022-10-14T09:19:40.406Z,18.72
2022-10-14T09:20:40.417Z,18.47
2022-10-14T09:21:52.054Z,18.52
2022-10-14T09:22:40.479Z,18.52
2022-10-14T09:23:40.420Z,18.69
2022-10-14T09:24:40.413Z,18.7
2022-10-14T09:25:40.416Z,18.53
2022-10-14T09:26:40.425Z,18.64
2022-10-14T09:27:40.480Z,18.38
2022-10-14T09:28:40.543Z,18.81
2022-10-14T09:29:40.412Z,19
2022-10-14T09:30:40.414Z,18.61
2022-10-14T09:31:40.414Z,18.42
2022-10-14T09:32:40.433Z,18.78
2022-10-14T09:33:42.383Z,18.59
2022-10-14T09:34:40.415Z,18.37
2022-10-14T09:35:40.412Z,18.24
2022-10-14T09:36:40.454Z,18.41
2022-10-14T09:37:40.427Z,18.37
2022-10-14T09:38:40.412Z,18.37
2022-10-14T09:39:40.567Z,18.49
2022-10-14T09:40:40.420Z,18.21
2022-10-14T09:41:40.452Z,18.11
2022-10-14T09:42:40.434Z,18.15
2022-10-14T09:43:40.413Z,17.99
2022-10-14T09:44:40.409Z,18.25
2022-10-14T09:45:40.446Z,18.25
2022-10-14T09:46:40.415Z,18.25
2022-10-14T09:47:40.427Z,18.25
2022-10-14T09:48:40.411Z,18.25
2022-10-14T09:49:40.407Z,18.25
2022-10-14T09:50:40.407Z,18.25
2022-10-14T09:51:40.404Z,18.25
2022-10-14T09:52:40.425Z,18.67
2022-10-14T09:53:40.418Z,18.55
2022-10-14T09:54:40.474Z,18.7
2022-10-14T09:55:40.402Z,18.7
2022-10-14T09:56:41.991Z,19.35
2022-10-14T09:57:40.428Z,19.36
2022-10-14T09:58:40.430Z,19.53
2022-10-14T09:59:40.408Z,19.1
2022-10-14T10:00:40.415Z,18.41
2022-10-14T10:01:40.410Z,18.47
2022-10-14T10:02:40.423Z,18.81
2022-10-14T10:03:40.535Z,19.18
2022-10-14T10:04:40.410Z,19.03
2022-10-14T10:05:40.407Z,18.67
2022-10-14T10:06:40.412Z,18.6
2022-10-14T10:07:40.429Z,18.48
2022-10-14T10:08:40.414Z,18.63
2022-10-14T10:09:40.409Z,19.04
2022-10-14T10:10:40.422Z,18.7
2022-10-14T10:11:40.431Z,19.03
2022-10-14T10:12:40.421Z,19.03
2022-10-14T10:13:40.417Z,19.27
2022-10-14T10:14:40.417Z,19.24
2022-10-14T10:15:40.418Z,19.2
2022-10-14T10:16:40.481Z,19
2022-10-14T10:17:40.427Z,19
2022-10-14T10:18:40.419Z,19.15
2022-10-14T10:19:40.413Z,19.15
2022-10-14T10:20:40.412Z,19.75
2022-10-14T10:21:40.412Z,19.73
2022-10-14T10:22:40.423Z,19.52
2022-10-14T10:23:40.412Z,19.89
2022-10-14T10:24:40.412Z,19.9
2022-10-14T10:25:40.412Z,20.19
2022-10-14T10:26:40.429Z,20.21
2022-10-14T10:27:40.425Z,20.21
2022-10-14T10:28:40.450Z,19.84
2022-10-14T10:29:40.419Z,19.84
2022-10-14T10:30:40.407Z,19.24
2022-10-14T10:32:40.424Z,19.5
2022-10-14T10:33:40.410Z,19.31
2022-10-14T10:34:40.415Z,19.36
2022-10-14T10:35:40.409Z,19.36
2022-10-14T10:36:40.419Z,19.23
2022-10-14T10:37:40.426Z,19.37
2022-10-14T10:38:40.412Z,19.51
2022-10-14T10:39:40.426Z,19.23
2022-10-14T10:40:40.480Z,18.35
2022-10-14T10:41:40.437Z,18.41
2022-10-14T10:42:40.426Z,18.41
2022-10-14T10:43:40.411Z,19.1
2022-10-14T10:44:40.402Z,19.18
2022-10-14T10:45:40.416Z,19.17
2022-10-14T10:46:40.418Z,19.06
2022-10-14T10:47:40.424Z,19.05
2022-10-14T10:48:40.408Z,19.05
2022-10-14T10:49:40.403Z,19.13
2022-10-14T10:50:40.423Z,19.22
2022-10-14T10:51:40.419Z,18.88
2022-10-14T10:52:40.436Z,18.88
2022-10-14T10:53:40.412Z,18.47
2022-10-14T10:54:40.412Z,18.72
2022-10-14T10:55:40.459Z,18.98
2022-10-14T10:56:40.424Z,18.87
2022-10-14T10:57:40.440Z,18.69
2022-10-14T10:58:40.409Z,18.68
2022-10-14T10:59:40.418Z,18.77
2022-10-14T11:00:40.411Z,18.57
2022-10-14T11:01:40.452Z,18.42
2022-10-14T11:02:40.429Z,18.53
2022-10-14T11:03:40.427Z,18.23
2022-10-14T11:04:40.411Z,18.18
2022-10-14T11:05:40.405Z,18.3
2022-10-14T11:06:40.408Z,18.3
2022-10-14T11:07:40.425Z,18.1
2022-10-14T11:08:40.423Z,18.1
2022-10-14T11:09:40.421Z,18.31
2022-10-14T11:10:40.415Z,18.27
2022-10-14T11:11:40.425Z,18.4
2022-10-14T11:12:40.442Z,18.59
2022-10-14T11:13:40.412Z,18.59
2022-10-14T11:14:40.420Z,18.59
2022-10-14T11:15:40.415Z,18.59
2022-10-14T11:16:40.419Z,18.59
2022-10-14T11:18:40.432Z,18.63
2022-10-14T11:19:40.418Z,18.7
2022-10-14T11:20:40.418Z,18.67
2022-10-14T11:21:40.430Z,18.7
2022-10-14T11:22:40.425Z,18.7
2022-10-14T11:23:40.410Z,18.83
2022-10-14T11:24:40.407Z,18.83
2022-10-14T11:25:40.407Z,18.83
2022-10-14T11:26:40.440Z,18.97
2022-10-14T11:27:40.429Z,18.88
2022-10-14T11:28:40.442Z,18.94
2022-10-14T11:29:40.413Z,18.77
2022-10-14T11:30:40.418Z,18.77
2022-10-14T11:31:40.426Z,18.77
2022-10-14T11:32:40.418Z,18.77
2022-10-14T11:33:40.414Z,18.77
2022-10-14T11:34:40.404Z,18.77
2022-10-14T11:35:40.411Z,18.77
2022-10-14T11:36:40.417Z,18.77
2022-10-14T11:37:40.427Z,18.77
2022-10-14T11:38:40.418Z,18.77
2022-10-14T11:39:40.403Z,18.77
2022-10-14T11:40:40.412Z,18.77
2022-10-14T11:41:40.435Z,18.9
2022-10-14T11:42:40.423Z,18.9
2022-10-14T11:43:40.408Z,19.38
2022-10-14T11:44:40.502Z,19.35
2022-10-14T11:45:40.411Z,19.66
2022-10-14T11:46:40.415Z,19.58
2022-10-14T11:47:40.430Z,19.68
2022-10-14T11:48:40.414Z,19.84
2022-10-14T11:49:40.410Z,19.35
2022-10-14T11:50:40.420Z,19.24
2022-10-14T11:51:40.420Z,19.32
2022-10-14T11:52:40.427Z,19.9
2022-10-14T11:53:40.432Z,19.9
2022-10-14T11:54:40.425Z,19.7
2022-10-14T11:55:40.409Z,20.3
2022-10-14T11:56:40.420Z,20.45
2022-10-14T11:57:40.425Z,20.24
2022-10-14T11:58:40.411Z,20.24
2022-10-14T11:59:40.413Z,20.25
2022-10-14T12:00:40.402Z,20.25
2022-10-14T12:01:40.403Z,20.34
2022-10-14T12:02:40.465Z,20.25
2022-10-14T12:03:40.412Z,20.63
2022-10-14T12:04:40.407Z,20.63
2022-10-14T12:05:40.403Z,20.56
2022-10-14T12:06:40.402Z,20.43
2022-10-14T12:07:40.412Z,20.65
2022-10-14T12:08:40.417Z,20.89
2022-10-14T12:09:40.526Z,20.46
2022-10-14T12:10:40.401Z,20.48
2022-10-14T12:11:40.418Z,20.52
2022-10-14T12:12:40.503Z,20.64
2022-10-14T12:13:40.413Z,20.47
2022-10-14T12:14:40.408Z,19.75
2022-10-14T12:15:40.418Z,19.52
2022-10-14T12:16:40.415Z,19.56
2022-10-14T12:17:40.420Z,19.54
2022-10-14T12:18:40.413Z,19.62
2022-10-14T12:19:40.413Z,19.81
2022-10-14T12:20:40.419Z,19.81
2022-10-14T12:21:40.410Z,19.62
2022-10-14T12:22:40.426Z,18.99
2022-10-14T12:23:40.483Z,18.78
2022-10-14T12:24:40.410Z,19.31
2022-10-14T12:25:40.411Z,19.51
2022-10-14T12:26:40.427Z,19.96
2022-10-14T12:27:40.424Z,19.76
2022-10-14T12:28:40.444Z,19.76
2022-10-14T12:29:40.409Z,19.47
2022-10-14T12:30:40.406Z,19.47
2022-10-14T12:31:40.409Z,19.88
2022-10-14T12:32:40.422Z,19.88
2022-10-14T12:33:40.406Z,19.47
2022-10-14T12:34:40.417Z,19.46
2022-10-14T12:35:40.410Z,19.48
2022-10-14T12:36:40.418Z,19.58
2022-10-14T12:37:40.417Z,19.57
2022-10-14T12:38:40.409Z,19.57
2022-10-14T12:39:40.407Z,19.51
2022-10-14T12:40:40.414Z,19.41
2022-10-14T12:41:40.424Z,19.41
2022-10-14T12:42:40.431Z,19.58
2022-10-14T12:43:40.429Z,19.58
2022-10-14T12:44:40.407Z,19.4
2022-10-14T12:45:40.464Z,19.53
2022-10-14T12:46:40.435Z,19.69
2022-10-14T12:47:40.433Z,19.46
2022-10-14T12:48:40.413Z,19.82
2022-10-14T12:49:40.419Z,19.67
2022-10-14T12:50:40.410Z,19.81
2022-10-14T12:51:40.410Z,19.65
2022-10-14T12:52:40.514Z,19.79
2022-10-14T12:53:40.411Z,19.79
2022-10-14T12:54:40.487Z,20.03
2022-10-14T12:55:40.408Z,20.03
2022-10-14T12:56:40.429Z,20.11
2022-10-14T12:57:42.276Z,20.2
2022-10-14T12:58:40.417Z,20.04